sensor_id;sensor_type;location;lat;lon;timestamp;temperature;humidity
16666;DHT22;8446;50.998;6.250;2023-12-20T00:01:58;7.50;99.90
16666;DHT22;8446;50.998;6.250;2023-12-20T00:04:25;7.50;99.90
16666;DHT22;8446;50.998;6.250;2023-12-20T00:06:51;7.40;99.90
16666;DHT22;8446;50.998;6.250;2023-12-20T00:09:20;7.40;99.90
16666;DHT22;8446;50.998;6.250;2023-12-20T00:11:46;7.40;99.90
16666;DHT22;8446;50.998;6.250;2023-12-20T00:14:13;7.40;99.90
16666;DHT22;8446;50.998;6.250;2023-12-20T00:16:40;7.40;99.90
16666;DHT22;8446;50.998;6.250;2023-12-20T00:19:06;7.30;99.90
16666;DHT22;8446;50.998;6.250;2023-12-20T00:21:33;7.20;99.90
16666;DHT22;8446;50.998;6.250;2023-12-20T00:24:00;7.20;99.90
16666;DHT22;8446;50.998;6.250;2023-12-20T00:26:28;7.20;99.90
16666;DHT22;8446;50.998;6.250;2023-12-20T00:28:55;7.20;99.90
16666;DHT22;8446;50.998;6.250;2023-12-20T00:31:22;7.20;99.90
16666;DHT22;8446;50.998;6.250;2023-12-20T00:33:48;7.20;99.90
16666;DHT22;8446;50.998;6.250;2023-12-20T00:36:15;7.10;99.90
16666;DHT22;8446;50.998;6.250;2023-12-20T00:38:42;7.10;99.90
16666;DHT22;8446;50.998;6.250;2023-12-20T00:41:09;7.20;99.90
16666;DHT22;8446;50.998;6.250;2023-12-20T00:43:37;7.30;99.90
16666;DHT22;8446;50.998;6.250;2023-12-20T00:46:04;7.30;99.90
16666;DHT22;8446;50.998;6.250;2023-12-20T00:48:31;7.30;99.90
16666;DHT22;8446;50.998;6.250;2023-12-20T00:50:58;7.10;99.90
16666;DHT22;8446;50.998;6.250;2023-12-20T00:53:24;6.90;99.90
16666;DHT22;8446;50.998;6.250;2023-12-20T00:55:51;7.00;99.90
16666;DHT22;8446;50.998;6.250;2023-12-20T00:58:18;6.90;99.90
16666;DHT22;8446;50.998;6.250;2023-12-20T01:00:46;6.90;99.90
16666;DHT22;8446;50.998;6.250;2023-12-20T01:03:13;6.80;99.90
16666;DHT22;8446;50.998;6.250;2023-12-20T01:05:40;6.80;99.90
16666;DHT22;8446;50.998;6.250;2023-12-20T01:08:07;6.70;99.90
16666;DHT22;8446;50.998;6.250;2023-12-20T01:10:34;6.70;99.90
16666;DHT22;8446;50.998;6.250;2023-12-20T01:13:00;6.60;99.90
16666;DHT22;8446;50.998;6.250;2023-12-20T01:15:27;6.40;99.90
16666;DHT22;8446;50.998;6.250;2023-12-20T01:17:55;6.30;99.90
16666;DHT22;8446;50.998;6.250;2023-12-20T01:20:24;6.20;99.90
16666;DHT22;8446;50.998;6.250;2023-12-20T01:22:51;6.10;99.90
16666;DHT22;8446;50.998;6.250;2023-12-20T01:25:18;6.10;99.90
16666;DHT22;8446;50.998;6.250;2023-12-20T01:27:44;6.10;99.90
16666;DHT22;8446;50.998;6.250;2023-12-20T01:30:12;6.10;99.90
16666;DHT22;8446;50.998;6.250;2023-12-20T01:32:38;6.10;99.90
16666;DHT22;8446;50.998;6.250;2023-12-20T01:35:07;6.10;99.90
16666;DHT22;8446;50.998;6.250;2023-12-20T01:37:34;6.10;99.90
16666;DHT22;8446;50.998;6.250;2023-12-20T01:40:01;6.00;99.90
16666;DHT22;8446;50.998;6.250;2023-12-20T01:42:27;5.90;99.90
16666;DHT22;8446;50.998;6.250;2023-12-20T01:44:55;5.90;99.90
16666;DHT22;8446;50.998;6.250;2023-12-20T01:47:21;5.90;99.90
16666;DHT22;8446;50.998;6.250;2023-12-20T01:49:48;5.90;99.90
16666;DHT22;8446;50.998;6.250;2023-12-20T01:52:17;5.90;99.90
16666;DHT22;8446;50.998;6.250;2023-12-20T01:54:44;5.90;99.90
16666;DHT22;8446;50.998;6.250;2023-12-20T01:57:11;6.00;99.90
16666;DHT22;8446;50.998;6.250;2023-12-20T01:59:39;6.00;99.90
16666;DHT22;8446;50.998;6.250;2023-12-20T02:02:07;6.00;99.90
16666;DHT22;8446;50.998;6.250;2023-12-20T02:04:34;6.00;99.90
16666;DHT22;8446;50.998;6.250;2023-12-20T02:07:02;6.00;99.90
16666;DHT22;8446;50.998;6.250;2023-12-20T02:09:32;6.00;99.90
16666;DHT22;8446;50.998;6.250;2023-12-20T02:11:59;6.00;99.90
16666;DHT22;8446;50.998;6.250;2023-12-20T02:14:26;6.10;99.90
16666;DHT22;8446;50.998;6.250;2023-12-20T02:16:52;6.10;99.90
16666;DHT22;8446;50.998;6.250;2023-12-20T02:19:20;6.00;99.90
16666;DHT22;8446;50.998;6.250;2023-12-20T02:21:48;6.00;99.90
16666;DHT22;8446;50.998;6.250;2023-12-20T02:24:15;6.10;99.90
16666;DHT22;8446;50.998;6.250;2023-12-20T02:26:43;6.10;99.90
16666;DHT22;8446;50.998;6.250;2023-12-20T02:29:10;6.00;99.90
16666;DHT22;8446;50.998;6.250;2023-12-20T02:31:37;6.00;99.90
16666;DHT22;8446;50.998;6.250;2023-12-20T02:34:04;6.10;99.90
16666;DHT22;8446;50.998;6.250;2023-12-20T02:36:30;6.10;99.90
16666;DHT22;8446;50.998;6.250;2023-12-20T02:38:58;6.10;99.90
16666;DHT22;8446;50.998;6.250;2023-12-20T02:41:25;6.10;99.90
16666;DHT22;8446;50.998;6.250;2023-12-20T02:43:52;6.10;99.90
16666;DHT22;8446;50.998;6.250;2023-12-20T02:46:19;6.10;99.90
16666;DHT22;8446;50.998;6.250;2023-12-20T02:48:45;6.10;99.90
16666;DHT22;8446;50.998;6.250;2023-12-20T02:51:13;6.10;99.90
16666;DHT22;8446;50.998;6.250;2023-12-20T02:53:40;6.10;99.90
16666;DHT22;8446;50.998;6.250;2023-12-20T02:56:08;6.10;99.90
16666;DHT22;8446;50.998;6.250;2023-12-20T02:58:35;6.00;99.90
16666;DHT22;8446;50.998;6.250;2023-12-20T03:01:02;6.00;99.90
16666;DHT22;8446;50.998;6.250;2023-12-20T03:03:29;6.00;99.90
16666;DHT22;8446;50.998;6.250;2023-12-20T03:05:56;5.90;99.90
16666;DHT22;8446;50.998;6.250;2023-12-20T03:08:22;5.90;99.90
16666;DHT22;8446;50.998;6.250;2023-12-20T03:10:50;5.90;99.90
16666;DHT22;8446;50.998;6.250;2023-12-20T03:13:18;5.90;99.90
16666;DHT22;8446;50.998;6.250;2023-12-20T03:15:45;5.90;99.90
16666;DHT22;8446;50.998;6.250;2023-12-20T03:18:12;5.90;99.90
16666;DHT22;8446;50.998;6.250;2023-12-20T03:20:38;5.90;99.90
16666;DHT22;8446;50.998;6.250;2023-12-20T03:23:06;5.90;99.90
16666;DHT22;8446;50.998;6.250;2023-12-20T03:25:33;5.90;99.90
16666;DHT22;8446;50.998;6.250;2023-12-20T03:28:00;5.80;99.90
16666;DHT22;8446;50.998;6.250;2023-12-20T03:30:28;5.80;99.90
16666;DHT22;8446;50.998;6.250;2023-12-20T03:32:55;5.80;99.90
16666;DHT22;8446;50.998;6.250;2023-12-20T03:35:21;5.80;99.90
16666;DHT22;8446;50.998;6.250;2023-12-20T03:37:48;5.80;99.90
16666;DHT22;8446;50.998;6.250;2023-12-20T03:40:15;5.70;99.90
16666;DHT22;8446;50.998;6.250;2023-12-20T03:42:42;5.60;99.90
16666;DHT22;8446;50.998;6.250;2023-12-20T03:45:09;5.60;99.90
16666;DHT22;8446;50.998;6.250;2023-12-20T03:47:37;5.60;99.90
16666;DHT22;8446;50.998;6.250;2023-12-20T03:50:05;5.60;99.90
16666;DHT22;8446;50.998;6.250;2023-12-20T03:52:32;5.60;99.90
16666;DHT22;8446;50.998;6.250;2023-12-20T03:54:59;5.70;99.90
16666;DHT22;8446;50.998;6.250;2023-12-20T03:57:25;5.70;99.90
16666;DHT22;8446;50.998;6.250;2023-12-20T03:59:52;5.70;99.90
16666;DHT22;8446;50.998;6.250;2023-12-20T04:02:19;5.70;99.90
16666;DHT22;8446;50.998;6.250;2023-12-20T04:04:47;5.70;99.90
16666;DHT22;8446;50.998;6.250;2023-12-20T04:07:14;5.70;99.90
16666;DHT22;8446;50.998;6.250;2023-12-20T04:09:41;5.70;99.90
16666;DHT22;8446;50.998;6.250;2023-12-20T04:12:08;5.60;99.90
16666;DHT22;8446;50.998;6.250;2023-12-20T04:14:34;5.60;99.90
16666;DHT22;8446;50.998;6.250;2023-12-20T04:17:01;5.60;99.90
16666;DHT22;8446;50.998;6.250;2023-12-20T04:19:28;5.60;99.90
16666;DHT22;8446;50.998;6.250;2023-12-20T04:21:56;5.70;99.90
16666;DHT22;8446;50.998;6.250;2023-12-20T04:24:23;5.60;99.90
16666;DHT22;8446;50.998;6.250;2023-12-20T04:26:49;5.60;99.90
16666;DHT22;8446;50.998;6.250;2023-12-20T04:29:17;5.50;99.90
16666;DHT22;8446;50.998;6.250;2023-12-20T04:31:43;5.50;99.90
16666;DHT22;8446;50.998;6.250;2023-12-20T04:34:10;5.50;99.90
16666;DHT22;8446;50.998;6.250;2023-12-20T04:36:37;5.40;99.90
16666;DHT22;8446;50.998;6.250;2023-12-20T04:39:05;5.40;99.90
16666;DHT22;8446;50.998;6.250;2023-12-20T04:41:32;5.30;99.90
16666;DHT22;8446;50.998;6.250;2023-12-20T04:43:58;5.30;99.90
16666;DHT22;8446;50.998;6.250;2023-12-20T04:46:26;5.40;99.90
16666;DHT22;8446;50.998;6.250;2023-12-20T04:48:52;5.50;99.90
16666;DHT22;8446;50.998;6.250;2023-12-20T04:51:19;5.50;99.90
16666;DHT22;8446;50.998;6.250;2023-12-20T04:53:46;5.50;99.90
16666;DHT22;8446;50.998;6.250;2023-12-20T04:56:14;5.50;99.90
16666;DHT22;8446;50.998;6.250;2023-12-20T04:58:42;5.50;99.90
16666;DHT22;8446;50.998;6.250;2023-12-20T05:01:09;5.60;99.90
16666;DHT22;8446;50.998;6.250;2023-12-20T05:03:36;5.60;99.90
16666;DHT22;8446;50.998;6.250;2023-12-20T05:06:03;5.60;99.90
16666;DHT22;8446;50.998;6.250;2023-12-20T05:08:30;5.50;99.90
16666;DHT22;8446;50.998;6.250;2023-12-20T05:10:57;5.60;99.90
16666;DHT22;8446;50.998;6.250;2023-12-20T05:13:25;5.50;99.90
16666;DHT22;8446;50.998;6.250;2023-12-20T05:15:52;5.50;99.90
16666;DHT22;8446;50.998;6.250;2023-12-20T05:18:19;5.60;99.90
16666;DHT22;8446;50.998;6.250;2023-12-20T05:20:46;5.60;99.90
16666;DHT22;8446;50.998;6.250;2023-12-20T05:23:13;5.70;99.90
16666;DHT22;8446;50.998;6.250;2023-12-20T05:25:40;5.70;99.90
16666;DHT22;8446;50.998;6.250;2023-12-20T05:28:07;5.70;99.90
16666;DHT22;8446;50.998;6.250;2023-12-20T05:30:35;5.80;99.90
16666;DHT22;8446;50.998;6.250;2023-12-20T05:33:01;5.80;99.90
16666;DHT22;8446;50.998;6.250;2023-12-20T05:35:28;5.80;99.90
16666;DHT22;8446;50.998;6.250;2023-12-20T05:37:55;5.80;99.90
16666;DHT22;8446;50.998;6.250;2023-12-20T05:40:22;5.80;99.90
16666;DHT22;8446;50.998;6.250;2023-12-20T05:42:49;5.80;99.90
16666;DHT22;8446;50.998;6.250;2023-12-20T05:45:16;5.80;99.90
16666;DHT22;8446;50.998;6.250;2023-12-20T05:47:44;5.80;99.90
16666;DHT22;8446;50.998;6.250;2023-12-20T05:50:11;5.80;99.90
16666;DHT22;8446;50.998;6.250;2023-12-20T05:52:37;5.90;99.90
16666;DHT22;8446;50.998;6.250;2023-12-20T05:55:04;5.90;99.90
16666;DHT22;8446;50.998;6.250;2023-12-20T05:57:31;5.90;99.90
16666;DHT22;8446;50.998;6.250;2023-12-20T05:59:58;5.90;99.90
16666;DHT22;8446;50.998;6.250;2023-12-20T06:02:25;5.90;99.90
16666;DHT22;8446;50.998;6.250;2023-12-20T06:04:53;5.90;99.90
16666;DHT22;8446;50.998;6.250;2023-12-20T06:07:20;5.90;99.90
16666;DHT22;8446;50.998;6.250;2023-12-20T06:09:46;5.80;99.90
16666;DHT22;8446;50.998;6.250;2023-12-20T06:12:13;5.80;99.90
16666;DHT22;8446;50.998;6.250;2023-12-20T06:14:40;5.80;99.90
16666;DHT22;8446;50.998;6.250;2023-12-20T06:17:07;5.80;99.90
16666;DHT22;8446;50.998;6.250;2023-12-20T06:19:33;5.80;99.90
16666;DHT22;8446;50.998;6.250;2023-12-20T06:22:02;5.80;99.90
16666;DHT22;8446;50.998;6.250;2023-12-20T06:24:28;5.80;99.90
16666;DHT22;8446;50.998;6.250;2023-12-20T06:26:55;5.80;99.90
16666;DHT22;8446;50.998;6.250;2023-12-20T06:29:23;5.90;99.90
16666;DHT22;8446;50.998;6.250;2023-12-20T06:31:49;5.90;99.90
16666;DHT22;8446;50.998;6.250;2023-12-20T06:34:16;6.00;99.90
16666;DHT22;8446;50.998;6.250;2023-12-20T06:36:43;5.90;99.90
16666;DHT22;8446;50.998;6.250;2023-12-20T06:39:11;5.90;99.90
16666;DHT22;8446;50.998;6.250;2023-12-20T06:41:39;5.90;99.90
16666;DHT22;8446;50.998;6.250;2023-12-20T06:44:05;5.90;99.90
16666;DHT22;8446;50.998;6.250;2023-12-20T06:46:32;5.90;99.90
16666;DHT22;8446;50.998;6.250;2023-12-20T06:49:00;5.90;99.90
16666;DHT22;8446;50.998;6.250;2023-12-20T06:51:26;5.90;99.90
16666;DHT22;8446;50.998;6.250;2023-12-20T06:53:53;5.90;99.90
16666;DHT22;8446;50.998;6.250;2023-12-20T06:56:21;5.90;99.90
16666;DHT22;8446;50.998;6.250;2023-12-20T06:58:48;5.80;99.90
16666;DHT22;8446;50.998;6.250;2023-12-20T07:01:15;5.80;99.90
16666;DHT22;8446;50.998;6.250;2023-12-20T07:03:42;5.70;99.90
16666;DHT22;8446;50.998;6.250;2023-12-20T07:06:09;5.70;99.90
16666;DHT22;8446;50.998;6.250;2023-12-20T07:08:36;5.60;99.90
16666;DHT22;8446;50.998;6.250;2023-12-20T07:11:03;5.60;99.90
16666;DHT22;8446;50.998;6.250;2023-12-20T07:13:31;5.70;99.90
16666;DHT22;8446;50.998;6.250;2023-12-20T07:15:58;5.70;99.90
16666;DHT22;8446;50.998;6.250;2023-12-20T07:18:24;5.60;99.90
16666;DHT22;8446;50.998;6.250;2023-12-20T07:20:51;5.60;99.90
16666;DHT22;8446;50.998;6.250;2023-12-20T07:23:18;5.60;99.90
16666;DHT22;8446;50.998;6.250;2023-12-20T07:25:45;5.60;99.90
16666;DHT22;8446;50.998;6.250;2023-12-20T07:28:12;5.60;99.90
16666;DHT22;8446;50.998;6.250;2023-12-20T07:30:40;5.60;99.90
16666;DHT22;8446;50.998;6.250;2023-12-20T07:33:07;5.60;99.90
16666;DHT22;8446;50.998;6.250;2023-12-20T07:35:35;5.60;99.90
16666;DHT22;8446;50.998;6.250;2023-12-20T07:38:01;5.50;99.90
16666;DHT22;8446;50.998;6.250;2023-12-20T07:40:28;5.60;99.90
16666;DHT22;8446;50.998;6.250;2023-12-20T07:42:55;5.50;99.90
16666;DHT22;8446;50.998;6.250;2023-12-20T07:45:23;5.50;99.90
16666;DHT22;8446;50.998;6.250;2023-12-20T07:47:51;5.50;99.90
16666;DHT22;8446;50.998;6.250;2023-12-20T07:50:19;5.50;99.90
16666;DHT22;8446;50.998;6.250;2023-12-20T07:52:45;5.50;99.90
16666;DHT22;8446;50.998;6.250;2023-12-20T07:55:12;5.50;99.90
16666;DHT22;8446;50.998;6.250;2023-12-20T07:57:39;5.50;99.90
16666;DHT22;8446;50.998;6.250;2023-12-20T08:00:06;5.40;99.90
16666;DHT22;8446;50.998;6.250;2023-12-20T08:02:33;5.40;99.90
16666;DHT22;8446;50.998;6.250;2023-12-20T08:05:01;5.30;99.90
16666;DHT22;8446;50.998;6.250;2023-12-20T08:07:28;5.40;99.90
16666;DHT22;8446;50.998;6.250;2023-12-20T08:09:55;5.40;99.90
16666;DHT22;8446;50.998;6.250;2023-12-20T08:12:22;5.40;99.90
16666;DHT22;8446;50.998;6.250;2023-12-20T08:14:49;5.40;99.90
16666;DHT22;8446;50.998;6.250;2023-12-20T08:17:16;5.40;99.90
16666;DHT22;8446;50.998;6.250;2023-12-20T08:19:44;5.40;99.90
16666;DHT22;8446;50.998;6.250;2023-12-20T08:22:12;5.50;99.90
16666;DHT22;8446;50.998;6.250;2023-12-20T08:24:39;5.50;99.90
16666;DHT22;8446;50.998;6.250;2023-12-20T08:27:05;5.60;99.90
16666;DHT22;8446;50.998;6.250;2023-12-20T08:29:32;5.60;99.90
16666;DHT22;8446;50.998;6.250;2023-12-20T08:31:59;5.60;99.90
16666;DHT22;8446;50.998;6.250;2023-12-20T08:34:26;5.60;99.90
16666;DHT22;8446;50.998;6.250;2023-12-20T08:36:53;5.50;99.90
16666;DHT22;8446;50.998;6.250;2023-12-20T08:39:21;5.50;99.90
16666;DHT22;8446;50.998;6.250;2023-12-20T08:41:48;5.60;99.90
16666;DHT22;8446;50.998;6.250;2023-12-20T08:44:14;5.60;99.90
16666;DHT22;8446;50.998;6.250;2023-12-20T08:46:41;5.60;99.90
16666;DHT22;8446;50.998;6.250;2023-12-20T08:49:08;5.60;99.90
16666;DHT22;8446;50.998;6.250;2023-12-20T08:51:35;5.70;99.90
16666;DHT22;8446;50.998;6.250;2023-12-20T08:54:05;5.80;99.90
16666;DHT22;8446;50.998;6.250;2023-12-20T08:56:34;6.00;99.90
16666;DHT22;8446;50.998;6.250;2023-12-20T08:59:01;6.00;99.90
16666;DHT22;8446;50.998;6.250;2023-12-20T09:01:28;6.00;99.90
16666;DHT22;8446;50.998;6.250;2023-12-20T09:03:55;6.00;99.90
16666;DHT22;8446;50.998;6.250;2023-12-20T09:06:22;6.00;99.90
16666;DHT22;8446;50.998;6.250;2023-12-20T09:08:49;6.00;99.90
16666;DHT22;8446;50.998;6.250;2023-12-20T09:11:16;6.00;99.90
16666;DHT22;8446;50.998;6.250;2023-12-20T09:13:45;6.00;99.90
16666;DHT22;8446;50.998;6.250;2023-12-20T09:16:11;6.10;99.90
16666;DHT22;8446;50.998;6.250;2023-12-20T09:18:39;6.10;99.90
16666;DHT22;8446;50.998;6.250;2023-12-20T09:21:05;6.10;99.90
16666;DHT22;8446;50.998;6.250;2023-12-20T09:23:32;6.10;99.90
16666;DHT22;8446;50.998;6.250;2023-12-20T09:25:59;6.30;99.90
16666;DHT22;8446;50.998;6.250;2023-12-20T09:28:26;6.30;99.90
16666;DHT22;8446;50.998;6.250;2023-12-20T09:30:54;6.20;99.90
16666;DHT22;8446;50.998;6.250;2023-12-20T09:33:20;6.10;99.90
16666;DHT22;8446;50.998;6.250;2023-12-20T09:35:47;6.20;99.90
16666;DHT22;8446;50.998;6.250;2023-12-20T09:38:14;6.20;99.90
16666;DHT22;8446;50.998;6.250;2023-12-20T09:40:42;6.20;99.90
16666;DHT22;8446;50.998;6.250;2023-12-20T09:43:11;6.20;99.90
16666;DHT22;8446;50.998;6.250;2023-12-20T09:45:40;6.40;99.90
16666;DHT22;8446;50.998;6.250;2023-12-20T09:48:11;6.50;99.90
16666;DHT22;8446;50.998;6.250;2023-12-20T09:50:38;6.40;99.90
16666;DHT22;8446;50.998;6.250;2023-12-20T09:53:05;6.30;99.90
16666;DHT22;8446;50.998;6.250;2023-12-20T09:55:36;6.30;99.90
16666;DHT22;8446;50.998;6.250;2023-12-20T09:58:03;6.40;99.90
16666;DHT22;8446;50.998;6.250;2023-12-20T10:00:30;6.40;99.90
16666;DHT22;8446;50.998;6.250;2023-12-20T10:02:58;6.50;99.90
16666;DHT22;8446;50.998;6.250;2023-12-20T10:05:28;6.50;99.90
16666;DHT22;8446;50.998;6.250;2023-12-20T10:07:55;6.50;99.90
16666;DHT22;8446;50.998;6.250;2023-12-20T10:10:22;6.50;99.90
16666;DHT22;8446;50.998;6.250;2023-12-20T10:13:02;6.60;99.90
16666;DHT22;8446;50.998;6.250;2023-12-20T10:15:29;6.70;99.90
16666;DHT22;8446;50.998;6.250;2023-12-20T10:17:56;6.70;99.90
16666;DHT22;8446;50.998;6.250;2023-12-20T10:20:23;6.60;99.90
16666;DHT22;8446;50.998;6.250;2023-12-20T10:22:52;6.60;99.90
16666;DHT22;8446;50.998;6.250;2023-12-20T10:25:20;6.60;99.90
16666;DHT22;8446;50.998;6.250;2023-12-20T10:27:46;6.70;99.90
16666;DHT22;8446;50.998;6.250;2023-12-20T10:30:13;6.70;99.90
16666;DHT22;8446;50.998;6.250;2023-12-20T10:32:40;6.70;99.90
16666;DHT22;8446;50.998;6.250;2023-12-20T10:35:08;6.70;99.90
16666;DHT22;8446;50.998;6.250;2023-12-20T10:37:35;6.70;99.90
16666;DHT22;8446;50.998;6.250;2023-12-20T10:40:05;6.70;99.90
16666;DHT22;8446;50.998;6.250;2023-12-20T10:42:32;6.60;99.90
16666;DHT22;8446;50.998;6.250;2023-12-20T10:45:00;6.50;99.90
16666;DHT22;8446;50.998;6.250;2023-12-20T10:47:28;6.50;99.90
16666;DHT22;8446;50.998;6.250;2023-12-20T10:49:59;6.50;99.90
16666;DHT22;8446;50.998;6.250;2023-12-20T10:52:28;6.50;99.90
16666;DHT22;8446;50.998;6.250;2023-12-20T10:54:55;6.50;99.90
16666;DHT22;8446;50.998;6.250;2023-12-20T10:57:25;6.50;99.90
16666;DHT22;8446;50.998;6.250;2023-12-20T10:59:54;6.60;99.90
16666;DHT22;8446;50.998;6.250;2023-12-20T11:02:22;6.60;99.90
16666;DHT22;8446;50.998;6.250;2023-12-20T11:04:56;6.60;99.90
16666;DHT22;8446;50.998;6.250;2023-12-20T11:07:31;6.70;99.90
16666;DHT22;8446;50.998;6.250;2023-12-20T11:10:02;6.70;99.90
16666;DHT22;8446;50.998;6.250;2023-12-20T11:12:37;6.70;99.90
16666;DHT22;8446;50.998;6.250;2023-12-20T11:15:07;6.70;99.90
16666;DHT22;8446;50.998;6.250;2023-12-20T11:17:34;6.80;99.90
16666;DHT22;8446;50.998;6.250;2023-12-20T11:20:05;6.80;99.90
16666;DHT22;8446;50.998;6.250;2023-12-20T11:22:33;6.80;99.90
16666;DHT22;8446;50.998;6.250;2023-12-20T11:25:04;6.80;99.90
16666;DHT22;8446;50.998;6.250;2023-12-20T11:27:33;6.80;99.90
16666;DHT22;8446;50.998;6.250;2023-12-20T11:30:02;6.80;99.90
16666;DHT22;8446;50.998;6.250;2023-12-20T11:32:31;6.80;99.90
16666;DHT22;8446;50.998;6.250;2023-12-20T11:35:01;6.80;99.90
16666;DHT22;8446;50.998;6.250;2023-12-20T11:37:38;6.70;99.90
16666;DHT22;8446;50.998;6.250;2023-12-20T11:40:11;6.70;99.90
16666;DHT22;8446;50.998;6.250;2023-12-20T11:42:42;6.70;99.90
16666;DHT22;8446;50.998;6.250;2023-12-20T11:45:09;6.70;99.90
16666;DHT22;8446;50.998;6.250;2023-12-20T11:47:36;6.70;99.90
16666;DHT22;8446;50.998;6.250;2023-12-20T11:50:04;6.70;99.90
16666;DHT22;8446;50.998;6.250;2023-12-20T11:52:30;6.70;99.90
16666;DHT22;8446;50.998;6.250;2023-12-20T11:54:57;6.70;99.90
16666;DHT22;8446;50.998;6.250;2023-12-20T11:57:25;6.80;99.90
16666;DHT22;8446;50.998;6.250;2023-12-20T11:59:53;6.80;99.90
16666;DHT22;8446;50.998;6.250;2023-12-20T12:02:20;6.80;99.90
16666;DHT22;8446;50.998;6.250;2023-12-20T12:04:48;6.80;99.90
16666;DHT22;8446;50.998;6.250;2023-12-20T12:07:16;6.80;99.90
16666;DHT22;8446;50.998;6.250;2023-12-20T12:09:43;6.70;99.90
16666;DHT22;8446;50.998;6.250;2023-12-20T12:12:10;6.80;99.90
16666;DHT22;8446;50.998;6.250;2023-12-20T12:14:38;6.70;99.90
16666;DHT22;8446;50.998;6.250;2023-12-20T12:17:11;6.70;99.90
16666;DHT22;8446;50.998;6.250;2023-12-20T12:19:39;6.80;99.90
16666;DHT22;8446;50.998;6.250;2023-12-20T12:22:06;6.80;99.90
16666;DHT22;8446;50.998;6.250;2023-12-20T12:24:35;6.80;99.90
16666;DHT22;8446;50.998;6.250;2023-12-20T12:27:03;6.80;99.90
16666;DHT22;8446;50.998;6.250;2023-12-20T12:29:30;6.80;99.90
16666;DHT22;8446;50.998;6.250;2023-12-20T12:31:56;6.80;99.90
16666;DHT22;8446;50.998;6.250;2023-12-20T12:34:27;6.80;99.90
16666;DHT22;8446;50.998;6.250;2023-12-20T12:36:54;6.80;99.90
16666;DHT22;8446;50.998;6.250;2023-12-20T12:39:24;6.80;99.90
16666;DHT22;8446;50.998;6.250;2023-12-20T12:41:53;6.70;99.90
16666;DHT22;8446;50.998;6.250;2023-12-20T12:44:20;6.70;99.90
16666;DHT22;8446;50.998;6.250;2023-12-20T12:46:49;6.80;99.90
16666;DHT22;8446;50.998;6.250;2023-12-20T12:49:16;6.70;99.90
16666;DHT22;8446;50.998;6.250;2023-12-20T12:51:45;6.70;99.90
16666;DHT22;8446;50.998;6.250;2023-12-20T12:54:12;6.70;99.90
16666;DHT22;8446;50.998;6.250;2023-12-20T12:56:41;6.70;99.90
16666;DHT22;8446;50.998;6.250;2023-12-20T12:59:08;6.80;99.90
16666;DHT22;8446;50.998;6.250;2023-12-20T13:01:35;6.80;99.90
16666;DHT22;8446;50.998;6.250;2023-12-20T13:04:02;6.90;99.90
16666;DHT22;8446;50.998;6.250;2023-12-20T13:06:31;6.90;99.90
16666;DHT22;8446;50.998;6.250;2023-12-20T13:09:00;6.90;99.90
16666;DHT22;8446;50.998;6.250;2023-12-20T13:11:26;6.90;99.90
16666;DHT22;8446;50.998;6.250;2023-12-20T13:13:53;6.90;99.90
16666;DHT22;8446;50.998;6.250;2023-12-20T13:16:20;7.00;99.90
16666;DHT22;8446;50.998;6.250;2023-12-20T13:18:46;7.00;99.90
16666;DHT22;8446;50.998;6.250;2023-12-20T13:21:13;7.00;99.90
16666;DHT22;8446;50.998;6.250;2023-12-20T13:23:40;7.00;99.90
16666;DHT22;8446;50.998;6.250;2023-12-20T13:26:08;7.00;99.90
16666;DHT22;8446;50.998;6.250;2023-12-20T13:28:35;7.00;99.90
16666;DHT22;8446;50.998;6.250;2023-12-20T13:31:02;7.10;99.90
16666;DHT22;8446;50.998;6.250;2023-12-20T13:33:28;7.10;99.90
16666;DHT22;8446;50.998;6.250;2023-12-20T13:35:55;7.10;99.90
16666;DHT22;8446;50.998;6.250;2023-12-20T13:38:23;7.10;99.90
16666;DHT22;8446;50.998;6.250;2023-12-20T13:40:50;7.10;99.90
16666;DHT22;8446;50.998;6.250;2023-12-20T13:43:18;7.10;99.90
16666;DHT22;8446;50.998;6.250;2023-12-20T13:45:47;7.10;99.90
16666;DHT22;8446;50.998;6.250;2023-12-20T13:48:14;7.10;99.90
16666;DHT22;8446;50.998;6.250;2023-12-20T13:50:41;7.00;99.90
16666;DHT22;8446;50.998;6.250;2023-12-20T13:53:07;7.10;99.90
16666;DHT22;8446;50.998;6.250;2023-12-20T13:55:34;7.10;99.90
16666;DHT22;8446;50.998;6.250;2023-12-20T13:58:01;7.10;99.90
16666;DHT22;8446;50.998;6.250;2023-12-20T14:00:29;7.20;99.90
16666;DHT22;8446;50.998;6.250;2023-12-20T14:02:56;7.20;99.90
16666;DHT22;8446;50.998;6.250;2023-12-20T14:05:24;7.20;99.90
16666;DHT22;8446;50.998;6.250;2023-12-20T14:07:52;7.20;99.90
16666;DHT22;8446;50.998;6.250;2023-12-20T14:10:19;7.20;99.90
16666;DHT22;8446;50.998;6.250;2023-12-20T14:12:45;7.20;99.90
16666;DHT22;8446;50.998;6.250;2023-12-20T14:15:12;7.20;99.90
16666;DHT22;8446;50.998;6.250;2023-12-20T14:17:41;7.20;99.90
16666;DHT22;8446;50.998;6.250;2023-12-20T14:20:08;7.30;99.90
16666;DHT22;8446;50.998;6.250;2023-12-20T14:22:37;7.30;99.90
16666;DHT22;8446;50.998;6.250;2023-12-20T14:25:10;7.30;99.90
16666;DHT22;8446;50.998;6.250;2023-12-20T14:27:37;7.30;99.90
16666;DHT22;8446;50.998;6.250;2023-12-20T14:30:05;7.30;99.90
16666;DHT22;8446;50.998;6.250;2023-12-20T14:32:34;7.30;99.90
16666;DHT22;8446;50.998;6.250;2023-12-20T14:35:04;7.30;99.90
16666;DHT22;8446;50.998;6.250;2023-12-20T14:37:31;7.40;99.90
16666;DHT22;8446;50.998;6.250;2023-12-20T14:39:58;7.40;99.90
16666;DHT22;8446;50.998;6.250;2023-12-20T14:42:25;7.40;99.90
16666;DHT22;8446;50.998;6.250;2023-12-20T14:44:52;7.30;99.90
16666;DHT22;8446;50.998;6.250;2023-12-20T14:47:20;7.30;99.90
16666;DHT22;8446;50.998;6.250;2023-12-20T14:49:46;7.30;99.90
16666;DHT22;8446;50.998;6.250;2023-12-20T14:52:17;7.30;99.90
16666;DHT22;8446;50.998;6.250;2023-12-20T14:54:44;7.20;99.90
16666;DHT22;8446;50.998;6.250;2023-12-20T14:57:11;7.20;99.90
16666;DHT22;8446;50.998;6.250;2023-12-20T14:59:38;7.20;99.90
16666;DHT22;8446;50.998;6.250;2023-12-20T15:02:04;7.20;99.90
16666;DHT22;8446;50.998;6.250;2023-12-20T15:04:31;7.20;99.90
16666;DHT22;8446;50.998;6.250;2023-12-20T15:06:58;7.20;99.90
16666;DHT22;8446;50.998;6.250;2023-12-20T15:09:27;7.20;99.90
16666;DHT22;8446;50.998;6.250;2023-12-20T15:11:55;7.20;99.90
16666;DHT22;8446;50.998;6.250;2023-12-20T15:14:21;7.10;99.90
16666;DHT22;8446;50.998;6.250;2023-12-20T15:16:48;7.10;99.90
16666;DHT22;8446;50.998;6.250;2023-12-20T15:19:15;7.10;99.90
16666;DHT22;8446;50.998;6.250;2023-12-20T15:21:42;7.10;99.90
16666;DHT22;8446;50.998;6.250;2023-12-20T15:24:09;7.10;99.90
16666;DHT22;8446;50.998;6.250;2023-12-20T15:26:42;7.10;99.90
16666;DHT22;8446;50.998;6.250;2023-12-20T15:29:09;7.10;99.90
16666;DHT22;8446;50.998;6.250;2023-12-20T15:31:42;7.20;99.90
16666;DHT22;8446;50.998;6.250;2023-12-20T15:34:09;7.20;99.90
16666;DHT22;8446;50.998;6.250;2023-12-20T15:36:36;7.20;99.90
16666;DHT22;8446;50.998;6.250;2023-12-20T15:39:03;7.30;99.90
16666;DHT22;8446;50.998;6.250;2023-12-20T15:41:30;7.30;99.90
16666;DHT22;8446;50.998;6.250;2023-12-20T15:43:58;7.20;99.90
16666;DHT22;8446;50.998;6.250;2023-12-20T15:46:25;7.30;99.90
16666;DHT22;8446;50.998;6.250;2023-12-20T15:48:52;7.30;99.90
16666;DHT22;8446;50.998;6.250;2023-12-20T15:51:20;7.30;99.90
16666;DHT22;8446;50.998;6.250;2023-12-20T15:53:46;7.30;99.90
16666;DHT22;8446;50.998;6.250;2023-12-20T15:56:13;7.30;99.90
16666;DHT22;8446;50.998;6.250;2023-12-20T15:58:40;7.30;99.90
16666;DHT22;8446;50.998;6.250;2023-12-20T16:01:08;7.30;99.90
16666;DHT22;8446;50.998;6.250;2023-12-20T16:03:35;7.30;99.90